sensor_id;sensor_type;location;lat;lon;timestamp;temperature;humidity
8002;DHT22;4046;48.774;8.732;2023-07-22T00:00:32;24.20;97.70
8002;DHT22;4046;48.774;8.732;2023-07-22T00:02:57;24.10;97.70
8002;DHT22;4046;48.774;8.732;2023-07-22T00:05:23;24.00;97.60
8002;DHT22;4046;48.774;8.732;2023-07-22T00:07:49;24.00;97.60
8002;DHT22;4046;48.774;8.732;2023-07-22T00:10:16;24.00;97.60
8002;DHT22;4046;48.774;8.732;2023-07-22T00:12:42;24.00;97.60
8002;DHT22;4046;48.774;8.732;2023-07-22T00:15:08;24.00;97.60
8002;DHT22;4046;48.774;8.732;2023-07-22T00:17:37;24.00;97.60
8002;DHT22;4046;48.774;8.732;2023-07-22T00:20:04;24.00;97.60
8002;DHT22;4046;48.774;8.732;2023-07-22T00:22:30;24.00;97.60
8002;DHT22;4046;48.774;8.732;2023-07-22T00:24:56;24.10;97.60
8002;DHT22;4046;48.774;8.732;2023-07-22T00:27:25;24.00;97.60
8002;DHT22;4046;48.774;8.732;2023-07-22T00:29:51;24.00;97.60
8002;DHT22;4046;48.774;8.732;2023-07-22T00:32:17;24.00;97.60
8002;DHT22;4046;48.774;8.732;2023-07-22T00:34:43;23.90;97.50
8002;DHT22;4046;48.774;8.732;2023-07-22T00:37:08;23.90;97.50
8002;DHT22;4046;48.774;8.732;2023-07-22T00:39:34;23.90;97.50
8002;DHT22;4046;48.774;8.732;2023-07-22T00:42:00;23.90;97.50
8002;DHT22;4046;48.774;8.732;2023-07-22T00:44:25;24.00;97.50
8002;DHT22;4046;48.774;8.732;2023-07-22T00:46:54;23.90;97.50
8002;DHT22;4046;48.774;8.732;2023-07-22T00:49:23;23.90;97.50
8002;DHT22;4046;48.774;8.732;2023-07-22T00:51:49;23.90;97.50
8002;DHT22;4046;48.774;8.732;2023-07-22T00:54:15;23.90;97.50
8002;DHT22;4046;48.774;8.732;2023-07-22T00:56:41;23.90;97.50
8002;DHT22;4046;48.774;8.732;2023-07-22T00:59:09;23.90;97.50
8002;DHT22;4046;48.774;8.732;2023-07-22T01:01:34;23.90;97.50
8002;DHT22;4046;48.774;8.732;2023-07-22T01:04:00;23.90;97.50
8002;DHT22;4046;48.774;8.732;2023-07-22T01:06:27;23.90;97.50
8002;DHT22;4046;48.774;8.732;2023-07-22T01:08:57;23.80;97.40
8002;DHT22;4046;48.774;8.732;2023-07-22T01:11:24;23.90;97.40
8002;DHT22;4046;48.774;8.732;2023-07-22T01:13:49;23.80;97.40
8002;DHT22;4046;48.774;8.732;2023-07-22T01:16:15;23.80;97.40
8002;DHT22;4046;48.774;8.732;2023-07-22T01:18:42;23.80;97.40
8002;DHT22;4046;48.774;8.732;2023-07-22T01:21:08;23.80;97.40
8002;DHT22;4046;48.774;8.732;2023-07-22T01:23:36;23.80;97.40
8002;DHT22;4046;48.774;8.732;2023-07-22T01:26:03;23.80;97.40
8002;DHT22;4046;48.774;8.732;2023-07-22T01:28:28;23.80;97.30
8002;DHT22;4046;48.774;8.732;2023-07-22T01:30:54;23.80;97.30
8002;DHT22;4046;48.774;8.732;2023-07-22T01:33:20;23.80;97.30
8002;DHT22;4046;48.774;8.732;2023-07-22T01:35:46;23.80;97.30
8002;DHT22;4046;48.774;8.732;2023-07-22T01:38:11;23.80;97.30
8002;DHT22;4046;48.774;8.732;2023-07-22T01:40:37;23.80;97.30
8002;DHT22;4046;48.774;8.732;2023-07-22T01:43:03;23.80;97.30
8002;DHT22;4046;48.774;8.732;2023-07-22T01:45:29;23.80;97.30
8002;DHT22;4046;48.774;8.732;2023-07-22T01:47:55;23.80;97.30
8002;DHT22;4046;48.774;8.732;2023-07-22T01:50:20;23.70;97.30
8002;DHT22;4046;48.774;8.732;2023-07-22T01:52:46;23.70;97.30
8002;DHT22;4046;48.774;8.732;2023-07-22T01:55:12;23.70;97.20
8002;DHT22;4046;48.774;8.732;2023-07-22T01:57:38;23.70;97.20
8002;DHT22;4046;48.774;8.732;2023-07-22T02:00:06;23.70;97.20
8002;DHT22;4046;48.774;8.732;2023-07-22T02:02:32;23.70;97.20
8002;DHT22;4046;48.774;8.732;2023-07-22T02:04:57;23.70;97.20
8002;DHT22;4046;48.774;8.732;2023-07-22T02:07:23;23.70;97.20
8002;DHT22;4046;48.774;8.732;2023-07-22T02:09:51;23.70;97.20
8002;DHT22;4046;48.774;8.732;2023-07-22T02:12:17;23.70;97.20
8002;DHT22;4046;48.774;8.732;2023-07-22T02:14:43;23.70;97.20
8002;DHT22;4046;48.774;8.732;2023-07-22T02:17:09;23.70;97.20
8002;DHT22;4046;48.774;8.732;2023-07-22T02:19:36;23.60;97.10
8002;DHT22;4046;48.774;8.732;2023-07-22T02:22:04;23.60;97.10
8002;DHT22;4046;48.774;8.732;2023-07-22T02:24:30;23.60;97.10
8002;DHT22;4046;48.774;8.732;2023-07-22T02:26:56;23.60;97.10
8002;DHT22;4046;48.774;8.732;2023-07-22T02:29:21;23.60;97.10
8002;DHT22;4046;48.774;8.732;2023-07-22T02:31:47;23.60;97.10
8002;DHT22;4046;48.774;8.732;2023-07-22T02:34:13;23.60;97.10
8002;DHT22;4046;48.774;8.732;2023-07-22T02:36:38;23.60;97.10
8002;DHT22;4046;48.774;8.732;2023-07-22T02:39:04;23.60;97.00
8002;DHT22;4046;48.774;8.732;2023-07-22T02:41:30;23.60;97.00
8002;DHT22;4046;48.774;8.732;2023-07-22T02:43:55;23.60;97.00
8002;DHT22;4046;48.774;8.732;2023-07-22T02:46:21;23.60;97.00
8002;DHT22;4046;48.774;8.732;2023-07-22T02:48:47;23.60;97.00
8002;DHT22;4046;48.774;8.732;2023-07-22T02:51:13;23.60;97.00
8002;DHT22;4046;48.774;8.732;2023-07-22T02:53:38;23.60;97.00
8002;DHT22;4046;48.774;8.732;2023-07-22T02:56:05;23.60;97.00
8002;DHT22;4046;48.774;8.732;2023-07-22T02:58:33;23.50;97.00
8002;DHT22;4046;48.774;8.732;2023-07-22T03:00:59;23.50;97.00
8002;DHT22;4046;48.774;8.732;2023-07-22T03:03:25;23.50;97.00
8002;DHT22;4046;48.774;8.732;2023-07-22T03:05:51;23.50;97.00
8002;DHT22;4046;48.774;8.732;2023-07-22T03:08:17;23.50;97.00
8002;DHT22;4046;48.774;8.732;2023-07-22T03:10:44;23.50;97.00
8002;DHT22;4046;48.774;8.732;2023-07-22T03:13:16;23.50;97.00
8002;DHT22;4046;48.774;8.732;2023-07-22T03:15:42;23.50;97.00
8002;DHT22;4046;48.774;8.732;2023-07-22T03:18:09;23.50;97.00
8002;DHT22;4046;48.774;8.732;2023-07-22T03:20:36;23.50;97.00
8002;DHT22;4046;48.774;8.732;2023-07-22T03:23:03;23.50;97.00
8002;DHT22;4046;48.774;8.732;2023-07-22T03:25:28;23.40;96.90
8002;DHT22;4046;48.774;8.732;2023-07-22T03:27:55;23.40;96.90
8002;DHT22;4046;48.774;8.732;2023-07-22T03:30:21;23.40;96.90
8002;DHT22;4046;48.774;8.732;2023-07-22T03:32:48;23.40;96.90
8002;DHT22;4046;48.774;8.732;2023-07-22T03:35:16;23.40;96.90
8002;DHT22;4046;48.774;8.732;2023-07-22T03:37:42;23.40;96.90
8002;DHT22;4046;48.774;8.732;2023-07-22T03:40:08;23.40;96.80
8002;DHT22;4046;48.774;8.732;2023-07-22T03:42:43;23.40;96.80
8002;DHT22;4046;48.774;8.732;2023-07-22T03:45:09;23.40;96.80
8002;DHT22;4046;48.774;8.732;2023-07-22T03:47:38;23.40;96.80
8002;DHT22;4046;48.774;8.732;2023-07-22T03:50:05;23.40;96.80
8002;DHT22;4046;48.774;8.732;2023-07-22T03:52:31;23.40;96.80
8002;DHT22;4046;48.774;8.732;2023-07-22T03:54:57;23.40;97.10
8002;DHT22;4046;48.774;8.732;2023-07-22T03:57:26;23.40;96.80
8002;DHT22;4046;48.774;8.732;2023-07-22T03:59:54;23.40;96.80
8002;DHT22;4046;48.774;8.732;2023-07-22T04:02:19;23.40;96.80
8002;DHT22;4046;48.774;8.732;2023-07-22T04:04:45;23.30;96.70
8002;DHT22;4046;48.774;8.732;2023-07-22T04:07:11;23.30;96.70
8002;DHT22;4046;48.774;8.732;2023-07-22T04:09:36;23.30;96.70
8002;DHT22;4046;48.774;8.732;2023-07-22T04:12:02;23.30;96.70
8002;DHT22;4046;48.774;8.732;2023-07-22T04:14:28;23.30;96.70
8002;DHT22;4046;48.774;8.732;2023-07-22T04:16:54;23.30;96.70
8002;DHT22;4046;48.774;8.732;2023-07-22T04:19:20;23.30;96.70
8002;DHT22;4046;48.774;8.732;2023-07-22T04:21:45;23.30;96.70
8002;DHT22;4046;48.774;8.732;2023-07-22T04:24:11;23.30;96.70
8002;DHT22;4046;48.774;8.732;2023-07-22T04:26:37;23.30;96.70
8002;DHT22;4046;48.774;8.732;2023-07-22T04:29:02;23.30;96.70
8002;DHT22;4046;48.774;8.732;2023-07-22T04:31:28;23.30;96.60
8002;DHT22;4046;48.774;8.732;2023-07-22T04:33:54;23.30;96.70
8002;DHT22;4046;48.774;8.732;2023-07-22T04:36:20;23.30;96.70
8002;DHT22;4046;48.774;8.732;2023-07-22T04:38:45;23.20;96.60
8002;DHT22;4046;48.774;8.732;2023-07-22T04:41:11;23.20;96.60
8002;DHT22;4046;48.774;8.732;2023-07-22T04:43:37;23.20;96.60
8002;DHT22;4046;48.774;8.732;2023-07-22T04:46:02;23.20;96.60
8002;DHT22;4046;48.774;8.732;2023-07-22T04:48:29;23.20;96.60
8002;DHT22;4046;48.774;8.732;2023-07-22T04:50:55;23.20;96.60
8002;DHT22;4046;48.774;8.732;2023-07-22T04:53:21;23.20;96.60
8002;DHT22;4046;48.774;8.732;2023-07-22T04:55:47;23.20;96.60
8002;DHT22;4046;48.774;8.732;2023-07-22T04:58:12;23.20;96.60
8002;DHT22;4046;48.774;8.732;2023-07-22T05:00:38;23.20;96.50
8002;DHT22;4046;48.774;8.732;2023-07-22T05:03:04;23.20;96.50
8002;DHT22;4046;48.774;8.732;2023-07-22T05:05:31;23.20;96.50
8002;DHT22;4046;48.774;8.732;2023-07-22T05:07:57;23.20;96.50
8002;DHT22;4046;48.774;8.732;2023-07-22T05:10:23;23.20;96.50
8002;DHT22;4046;48.774;8.732;2023-07-22T05:12:48;23.20;96.50
8002;DHT22;4046;48.774;8.732;2023-07-22T05:15:15;23.20;96.50
8002;DHT22;4046;48.774;8.732;2023-07-22T05:17:40;23.20;96.50
8002;DHT22;4046;48.774;8.732;2023-07-22T05:20:06;23.20;96.50
8002;DHT22;4046;48.774;8.732;2023-07-22T05:22:36;23.20;96.50
8002;DHT22;4046;48.774;8.732;2023-07-22T05:25:03;23.20;96.50
8002;DHT22;4046;48.774;8.732;2023-07-22T05:27:29;23.20;96.50
8002;DHT22;4046;48.774;8.732;2023-07-22T05:29:55;23.20;96.50
8002;DHT22;4046;48.774;8.732;2023-07-22T05:32:21;23.20;96.50
8002;DHT22;4046;48.774;8.732;2023-07-22T05:34:46;23.20;96.80
8002;DHT22;4046;48.774;8.732;2023-07-22T05:37:12;23.20;96.50
8002;DHT22;4046;48.774;8.732;2023-07-22T05:39:38;23.10;96.40
8002;DHT22;4046;48.774;8.732;2023-07-22T05:42:06;23.10;96.50
8002;DHT22;4046;48.774;8.732;2023-07-22T05:44:32;23.10;96.50
8002;DHT22;4046;48.774;8.732;2023-07-22T05:46:58;23.10;96.50
8002;DHT22;4046;48.774;8.732;2023-07-22T05:49:24;23.10;96.50
8002;DHT22;4046;48.774;8.732;2023-07-22T05:51:49;23.10;96.70
8002;DHT22;4046;48.774;8.732;2023-07-22T05:54:15;23.20;96.50
8002;DHT22;4046;48.774;8.732;2023-07-22T05:56:41;23.20;96.40
8002;DHT22;4046;48.774;8.732;2023-07-22T05:59:07;23.20;96.40
8002;DHT22;4046;48.774;8.732;2023-07-22T06:01:33;23.20;96.40
8002;DHT22;4046;48.774;8.732;2023-07-22T06:03:58;23.20;96.40
8002;DHT22;4046;48.774;8.732;2023-07-22T06:06:24;23.20;96.50
8002;DHT22;4046;48.774;8.732;2023-07-22T06:08:50;23.20;96.40
8002;DHT22;4046;48.774;8.732;2023-07-22T06:11:15;23.20;96.40
8002;DHT22;4046;48.774;8.732;2023-07-22T06:13:41;23.20;96.40
8002;DHT22;4046;48.774;8.732;2023-07-22T06:16:07;23.20;96.50
8002;DHT22;4046;48.774;8.732;2023-07-22T06:18:32;23.20;96.50
8002;DHT22;4046;48.774;8.732;2023-07-22T06:20:58;23.20;96.50
8002;DHT22;4046;48.774;8.732;2023-07-22T06:23:24;23.10;96.40
8002;DHT22;4046;48.774;8.732;2023-07-22T06:25:49;23.10;96.40
8002;DHT22;4046;48.774;8.732;2023-07-22T06:28:15;23.10;96.40
8002;DHT22;4046;48.774;8.732;2023-07-22T06:30:41;23.10;96.50
8002;DHT22;4046;48.774;8.732;2023-07-22T06:33:06;23.10;96.50
8002;DHT22;4046;48.774;8.732;2023-07-22T06:35:32;23.10;96.50
8002;DHT22;4046;48.774;8.732;2023-07-22T06:37:58;23.10;96.50
8002;DHT22;4046;48.774;8.732;2023-07-22T06:40:24;23.10;96.40
8002;DHT22;4046;48.774;8.732;2023-07-22T06:42:50;23.10;96.50
8002;DHT22;4046;48.774;8.732;2023-07-22T06:45:16;23.10;96.50
8002;DHT22;4046;48.774;8.732;2023-07-22T06:47:42;23.10;96.50
8002;DHT22;4046;48.774;8.732;2023-07-22T06:50:08;23.20;96.50
8002;DHT22;4046;48.774;8.732;2023-07-22T06:52:34;23.20;96.50
8002;DHT22;4046;48.774;8.732;2023-07-22T06:55:00;23.20;96.50
8002;DHT22;4046;48.774;8.732;2023-07-22T06:57:25;23.20;96.50
8002;DHT22;4046;48.774;8.732;2023-07-22T06:59:58;23.20;96.50
8002;DHT22;4046;48.774;8.732;2023-07-22T07:02:24;23.10;96.50
8002;DHT22;4046;48.774;8.732;2023-07-22T07:04:50;23.10;96.50
8002;DHT22;4046;48.774;8.732;2023-07-22T07:07:16;22.80;96.40
8002;DHT22;4046;48.774;8.732;2023-07-22T07:09:42;23.10;96.50
8002;DHT22;4046;48.774;8.732;2023-07-22T07:12:08;23.10;96.60
8002;DHT22;4046;48.774;8.732;2023-07-22T07:14:34;23.10;96.60
8002;DHT22;4046;48.774;8.732;2023-07-22T07:17:01;23.10;96.60
8002;DHT22;4046;48.774;8.732;2023-07-22T07:19:28;23.10;96.60
8002;DHT22;4046;48.774;8.732;2023-07-22T07:21:56;23.10;96.60
8002;DHT22;4046;48.774;8.732;2023-07-22T07:24:22;23.10;97.00
8002;DHT22;4046;48.774;8.732;2023-07-22T07:26:47;23.10;96.60
8002;DHT22;4046;48.774;8.732;2023-07-22T07:29:13;23.00;96.60
8002;DHT22;4046;48.774;8.732;2023-07-22T07:31:39;23.00;96.60
8002;DHT22;4046;48.774;8.732;2023-07-22T07:34:05;22.80;96.60
8002;DHT22;4046;48.774;8.732;2023-07-22T07:36:34;23.10;96.70
8002;DHT22;4046;48.774;8.732;2023-07-22T07:39:00;23.10;96.70
8002;DHT22;4046;48.774;8.732;2023-07-22T07:41:26;23.10;96.60
8002;DHT22;4046;48.774;8.732;2023-07-22T07:43:52;23.10;96.70
8002;DHT22;4046;48.774;8.732;2023-07-22T07:46:27;23.10;96.70
8002;DHT22;4046;48.774;8.732;2023-07-22T07:48:54;23.30;96.80
8002;DHT22;4046;48.774;8.732;2023-07-22T07:51:22;23.10;96.70
8002;DHT22;4046;48.774;8.732;2023-07-22T07:53:49;23.10;96.70
8002;DHT22;4046;48.774;8.732;2023-07-22T07:56:15;23.10;96.70
8002;DHT22;4046;48.774;8.732;2023-07-22T07:58:42;23.20;96.70
8002;DHT22;4046;48.774;8.732;2023-07-22T08:01:08;22.80;96.60
8002;DHT22;4046;48.774;8.732;2023-07-22T08:03:35;23.20;96.80
8002;DHT22;4046;48.774;8.732;2023-07-22T08:06:01;23.20;96.80
8002;DHT22;4046;48.774;8.732;2023-07-22T08:08:27;23.20;96.70
8002;DHT22;4046;48.774;8.732;2023-07-22T08:11:00;23.20;96.70
8002;DHT22;4046;48.774;8.732;2023-07-22T08:13:26;23.20;96.70
8002;DHT22;4046;48.774;8.732;2023-07-22T08:15:53;23.20;96.70
8002;DHT22;4046;48.774;8.732;2023-07-22T08:18:19;23.20;96.70
8002;DHT22;4046;48.774;8.732;2023-07-22T08:20:45;23.20;96.70
8002;DHT22;4046;48.774;8.732;2023-07-22T08:23:13;23.20;96.70
8002;DHT22;4046;48.774;8.732;2023-07-22T08:25:39;23.20;96.70
8002;DHT22;4046;48.774;8.732;2023-07-22T08:28:05;23.20;96.70
8002;DHT22;4046;48.774;8.732;2023-07-22T08:30:30;23.10;96.60
8002;DHT22;4046;48.774;8.732;2023-07-22T08:32:56;23.10;96.60
8002;DHT22;4046;48.774;8.732;2023-07-22T08:35:22;23.30;96.70
8002;DHT22;4046;48.774;8.732;2023-07-22T08:37:48;23.10;96.60
8002;DHT22;4046;48.774;8.732;2023-07-22T08:40:14;23.20;96.70
8002;DHT22;4046;48.774;8.732;2023-07-22T08:42:41;23.20;96.70
8002;DHT22;4046;48.774;8.732;2023-07-22T08:45:10;23.20;96.60
8002;DHT22;4046;48.774;8.732;2023-07-22T08:47:45;23.20;96.60
8002;DHT22;4046;48.774;8.732;2023-07-22T08:50:16;23.20;96.60
8002;DHT22;4046;48.774;8.732;2023-07-22T08:52:45;23.20;96.60
8002;DHT22;4046;48.774;8.732;2023-07-22T08:55:12;23.20;96.60
8002;DHT22;4046;48.774;8.732;2023-07-22T08:57:38;23.20;96.50
8002;DHT22;4046;48.774;8.732;2023-07-22T09:00:05;23.20;96.60
8002;DHT22;4046;48.774;8.732;2023-07-22T09:02:35;23.20;96.50
8002;DHT22;4046;48.774;8.732;2023-07-22T09:05:02;23.20;96.60
8002;DHT22;4046;48.774;8.732;2023-07-22T09:07:28;23.20;96.50
8002;DHT22;4046;48.774;8.732;2023-07-22T09:09:56;23.20;96.50
8002;DHT22;4046;48.774;8.732;2023-07-22T09:12:22;23.20;96.60
8002;DHT22;4046;48.774;8.732;2023-07-22T09:14:50;23.20;96.60
8002;DHT22;4046;48.774;8.732;2023-07-22T09:17:16;23.20;96.60
8002;DHT22;4046;48.774;8.732;2023-07-22T09:19:42;23.20;96.60
8002;DHT22;4046;48.774;8.732;2023-07-22T09:22:08;23.10;96.60
8002;DHT22;4046;48.774;8.732;2023-07-22T09:24:33;23.10;96.60
8002;DHT22;4046;48.774;8.732;2023-07-22T09:26:59;23.10;96.60
8002;DHT22;4046;48.774;8.732;2023-07-22T09:29:36;23.20;96.60
8002;DHT22;4046;48.774;8.732;2023-07-22T09:32:02;23.20;96.60
8002;DHT22;4046;48.774;8.732;2023-07-22T09:34:29;23.20;96.50
8002;DHT22;4046;48.774;8.732;2023-07-22T09:36:59;22.90;96.40
8002;DHT22;4046;48.774;8.732;2023-07-22T09:39:29;23.20;96.60
8002;DHT22;4046;48.774;8.732;2023-07-22T09:41:55;23.20;96.50
8002;DHT22;4046;48.774;8.732;2023-07-22T09:44:22;23.20;96.50
8002;DHT22;4046;48.774;8.732;2023-07-22T09:46:49;23.20;96.50
8002;DHT22;4046;48.774;8.732;2023-07-22T09:49:18;23.20;96.50
8002;DHT22;4046;48.774;8.732;2023-07-22T09:51:44;23.20;96.50
8002;DHT22;4046;48.774;8.732;2023-07-22T09:54:10;23.20;96.50
8002;DHT22;4046;48.774;8.732;2023-07-22T09:56:47;23.20;96.50
8002;DHT22;4046;48.774;8.732;2023-07-22T09:59:13;23.10;96.50
8002;DHT22;4046;48.774;8.732;2023-07-22T10:01:40;23.20;96.60
8002;DHT22;4046;48.774;8.732;2023-07-22T10:04:07;23.20;96.50
8002;DHT22;4046;48.774;8.732;2023-07-22T10:06:34;23.20;96.60
8002;DHT22;4046;48.774;8.732;2023-07-22T10:09:04;23.20;96.60
8002;DHT22;4046;48.774;8.732;2023-07-22T10:11:36;23.30;96.60
8002;DHT22;4046;48.774;8.732;2023-07-22T10:14:03;23.20;96.50
8002;DHT22;4046;48.774;8.732;2023-07-22T10:16:29;23.20;96.50
8002;DHT22;4046;48.774;8.732;2023-07-22T10:18:57;23.30;96.50
8002;DHT22;4046;48.774;8.732;2023-07-22T10:21:24;23.30;96.50
8002;DHT22;4046;48.774;8.732;2023-07-22T10:23:51;23.40;96.50
8002;DHT22;4046;48.774;8.732;2023-07-22T10:26:19;23.40;96.40
8002;DHT22;4046;48.774;8.732;2023-07-22T10:28:46;23.50;96.40
8002;DHT22;4046;48.774;8.732;2023-07-22T10:31:13;23.50;96.40
8002;DHT22;4046;48.774;8.732;2023-07-22T10:33:39;23.60;96.40
8002;DHT22;4046;48.774;8.732;2023-07-22T10:36:12;23.50;96.30
8002;DHT22;4046;48.774;8.732;2023-07-22T10:38:38;23.50;96.30
8002;DHT22;4046;48.774;8.732;2023-07-22T10:41:17;23.50;96.30
8002;DHT22;4046;48.774;8.732;2023-07-22T10:43:59;23.40;96.30
8002;DHT22;4046;48.774;8.732;2023-07-22T10:46:35;23.40;96.30
8002;DHT22;4046;48.774;8.732;2023-07-22T10:49:11;23.40;96.40
8002;DHT22;4046;48.774;8.732;2023-07-22T10:51:37;23.50;96.40
8002;DHT22;4046;48.774;8.732;2023-07-22T10:54:11;23.50;96.40
8002;DHT22;4046;48.774;8.732;2023-07-22T10:56:40;23.40;96.30
8002;DHT22;4046;48.774;8.732;2023-07-22T10:59:12;23.50;96.40
8002;DHT22;4046;48.774;8.732;2023-07-22T11:01:44;23.50;96.30
8002;DHT22;4046;48.774;8.732;2023-07-22T11:15:01;23.50;96.20
8002;DHT22;4046;48.774;8.732;2023-07-22T11:17:28;23.70;96.30
8002;DHT22;4046;48.774;8.732;2023-07-22T11:19:56;23.50;96.20
8002;DHT22;4046;48.774;8.732;2023-07-22T11:22:22;23.60;96.30
8002;DHT22;4046;48.774;8.732;2023-07-22T11:24:48;23.60;96.20
8002;DHT22;4046;48.774;8.732;2023-07-22T11:27:14;23.60;96.30
8002;DHT22;4046;48.774;8.732;2023-07-22T11:29:40;23.60;96.20
8002;DHT22;4046;48.774;8.732;2023-07-22T11:32:06;23.60;96.20
8002;DHT22;4046;48.774;8.732;2023-07-22T11:34:33;23.60;96.20
8002;DHT22;4046;48.774;8.732;2023-07-22T11:36:59;23.60;96.20
8002;DHT22;4046;48.774;8.732;2023-07-22T11:39:26;23.60;96.20
8002;DHT22;4046;48.774;8.732;2023-07-22T11:41:52;23.70;96.20
8002;DHT22;4046;48.774;8.732;2023-07-22T11:44:23;23.60;96.20
8002;DHT22;4046;48.774;8.732;2023-07-22T11:46:59;23.60;96.10
8002;DHT22;4046;48.774;8.732;2023-07-22T11:49:30;23.70;96.20
8002;DHT22;4046;48.774;8.732;2023-07-22T11:52:01;23.70;96.10
8002;DHT22;4046;48.774;8.732;2023-07-22T11:54:28;23.70;96.10
8002;DHT22;4046;48.774;8.732;2023-07-22T11:56:55;23.70;96.10
8002;DHT22;4046;48.774;8.732;2023-07-22T11:59:37;23.60;96.10
8002;DHT22;4046;48.774;8.732;2023-07-22T12:02:04;23.60;96.10
8002;DHT22;4046;48.774;8.732;2023-07-22T12:04:33;23.60;96.10
8002;DHT22;4046;48.774;8.732;2023-07-22T12:07:00;23.60;96.10
8002;DHT22;4046;48.774;8.732;2023-07-22T12:09:26;23.60;96.10
8002;DHT22;4046;48.774;8.732;2023-07-22T12:11:57;23.60;96.10
8002;DHT22;4046;48.774;8.732;2023-07-22T12:14:24;23.60;96.10
8002;DHT22;4046;48.774;8.732;2023-07-22T12:16:55;23.60;96.00
8002;DHT22;4046;48.774;8.732;2023-07-22T12:19:24;23.60;96.10
8002;DHT22;4046;48.774;8.732;2023-07-22T12:21:50;23.60;96.10
8002;DHT22;4046;48.774;8.732;2023-07-22T12:24:15;23.60;96.10
8002;DHT22;4046;48.774;8.732;2023-07-22T12:26:41;23.60;96.00
8002;DHT22;4046;48.774;8.732;2023-07-22T12:29:08;23.60;96.10
8002;DHT22;4046;48.774;8.732;2023-07-22T12:31:34;23.60;96.00
8002;DHT22;4046;48.774;8.732;2023-07-22T12:33:59;23.60;96.10
8002;DHT22;4046;48.774;8.732;2023-07-22T12:36:25;23.60;96.10
8002;DHT22;4046;48.774;8.732;2023-07-22T12:38:51;23.60;96.10
8002;DHT22;4046;48.774;8.732;2023-07-22T12:41:17;23.60;96.10
8002;DHT22;4046;48.774;8.732;2023-07-22T12:43:43;23.60;96.10
8002;DHT22;4046;48.774;8.732;2023-07-22T12:46:08;23.60;96.10
8002;DHT22;4046;48.774;8.732;2023-07-22T12:48:34;23.60;96.10
8002;DHT22;4046;48.774;8.732;2023-07-22T12:51:00;23.60;96.20
8002;DHT22;4046;48.774;8.732;2023-07-22T12:53:26;23.60;96.10
8002;DHT22;4046;48.774;8.732;2023-07-22T12:55:52;23.60;96.20
8002;DHT22;4046;48.774;8.732;2023-07-22T12:58:18;23.60;96.10
8002;DHT22;4046;48.774;8.732;2023-07-22T13:00:43;23.50;96.10
8002;DHT22;4046;48.774;8.732;2023-07-22T13:03:09;23.60;96.20
8002;DHT22;4046;48.774;8.732;2023-07-22T13:05:35;23.60;96.20
8002;DHT22;4046;48.774;8.732;2023-07-22T13:08:00;23.60;96.20
8002;DHT22;4046;48.774;8.732;2023-07-22T13:10:28;23.50;96.20
8002;DHT22;4046;48.774;8.732;2023-07-22T13:12:54;23.60;96.20
8002;DHT22;4046;48.774;8.732;2023-07-22T13:15:20;23.60;96.20
8002;DHT22;4046;48.774;8.732;2023-07-22T13:17:46;23.60;96.20
8002;DHT22;4046;48.774;8.732;2023-07-22T13:20:12;23.60;96.20
8002;DHT22;4046;48.774;8.732;2023-07-22T13:22:38;23.60;96.20
8002;DHT22;4046;48.774;8.732;2023-07-22T13:25:04;23.60;96.20
8002;DHT22;4046;48.774;8.732;2023-07-22T13:27:30;23.60;96.20
8002;DHT22;4046;48.774;8.732;2023-07-22T13:29:56;23.60;96.20
8002;DHT22;4046;48.774;8.732;2023-07-22T13:32:23;23.50;96.20
8002;DHT22;4046;48.774;8.732;2023-07-22T13:34:48;23.50;96.10
8002;DHT22;4046;48.774;8.732;2023-07-22T13:37:14;23.50;96.10
8002;DHT22;4046;48.774;8.732;2023-07-22T13:39:40;23.50;96.10
8002;DHT22;4046;48.774;8.732;2023-07-22T13:42:05;23.50;96.10
8002;DHT22;4046;48.774;8.732;2023-07-22T13:44:31;23.50;96.20
8002;DHT22;4046;48.774;8.732;2023-07-22T13:46:57;23.50;96.20
8002;DHT22;4046;48.774;8.732;2023-07-22T13:49:22;23.50;96.20
8002;DHT22;4046;48.774;8.732;2023-07-22T13:51:48;23.50;96.20
8002;DHT22;4046;48.774;8.732;2023-07-22T13:54:14;23.40;96.20
8002;DHT22;4046;48.774;8.732;2023-07-22T13:56:39;23.50;96.30
8002;DHT22;4046;48.774;8.732;2023-07-22T13:59:05;23.40;96.20
8002;DHT22;4046;48.774;8.732;2023-07-22T14:01:31;23.50;96.20
8002;DHT22;4046;48.774;8.732;2023-07-22T14:03:57;23.50;96.20
8002;DHT22;4046;48.774;8.732;2023-07-22T14:06:23;23.50;96.20
8002;DHT22;4046;48.774;8.732;2023-07-22T14:08:49;23.50;96.20
8002;DHT22;4046;48.774;8.732;2023-07-22T14:11:14;23.50;96.20
8002;DHT22;4046;48.774;8.732;2023-07-22T14:13:40;23.50;96.30
8002;DHT22;4046;48.774;8.732;2023-07-22T14:16:06;23.50;96.20
8002;DHT22;4046;48.774;8.732;2023-07-22T14:18:31;23.50;96.20
8002;DHT22;4046;48.774;8.732;2023-07-22T14:20:59;23.50;96.20
8002;DHT22;4046;48.774;8.732;2023-07-22T14:23:24;23.50;96.30
8002;DHT22;4046;48.774;8.732;2023-07-22T14:25:50;23.50;96.30
8002;DHT22;4046;48.774;8.732;2023-07-22T14:28:16;23.50;96.30
8002;DHT22;4046;48.774;8.732;2023-07-22T14:30:42;23.40;96.30
8002;DHT22;4046;48.774;8.732;2023-07-22T14:33:07;23.50;96.30
8002;DHT22;4046;48.774;8.732;2023-07-22T14:35:33;23.50;96.30
8002;DHT22;4046;48.774;8.732;2023-07-22T14:38:00;23.50;96.30
8002;DHT22;4046;48.774;8.732;2023-07-22T14:40:26;23.40;96.20
8002;DHT22;4046;48.774;8.732;2023-07-22T14:42:52;23.40;96.30
8002;DHT22;4046;48.774;8.732;2023-07-22T14:45:18;23.40;96.20
8002;DHT22;4046;48.774;8.732;2023-07-22T14:47:44;23.40;96.30
8002;DHT22;4046;48.774;8.732;2023-07-22T14:50:10;23.40;96.30
8002;DHT22;4046;48.774;8.732;2023-07-22T14:52:36;23.40;96.30
8002;DHT22;4046;48.774;8.732;2023-07-22T14:55:02;23.40;96.30
8002;DHT22;4046;48.774;8.732;2023-07-22T14:57:28;23.40;96.30
8002;DHT22;4046;48.774;8.732;2023-07-22T14:59:56;23.40;96.30
8002;DHT22;4046;48.774;8.732;2023-07-22T15:02:21;23.40;96.30
8002;DHT22;4046;48.774;8.732;2023-07-22T15:04:48;23.40;96.30
8002;DHT22;4046;48.774;8.732;2023-07-22T15:07:14;23.40;96.30
8002;DHT22;4046;48.774;8.732;2023-07-22T15:09:39;23.40;96.30
8002;DHT22;4046;48.774;8.732;2023-07-22T15:12:05;23.50;96.40
8002;DHT22;4046;48.774;8.732;2023-07-22T15:14:33;23.40;96.30
8002;DHT22;4046;48.774;8.732;2023-07-22T15:16:59;23.40;96.30
8002;DHT22;4046;48.774;8.732;2023-07-22T15:19:25;23.40;96.30
8002;DHT22;4046;48.774;8.732;2023-07-22T15:21:51;23.40;96.30
8002;DHT22;4046;48.774;8.732;2023-07-22T15:24:18;23.60;96.40
8002;DHT22;4046;48.774;8.732;2023-07-22T15:26:44;23.40;96.30
8002;DHT22;4046;48.774;8.732;2023-07-22T15:29:10;23.40;96.30
8002;DHT22;4046;48.774;8.732;2023-07-22T15:31:35;23.40;96.30
8002;DHT22;4046;48.774;8.732;2023-07-22T15:34:01;23.40;96.30
8002;DHT22;4046;48.774;8.732;2023-07-22T15:36:27;23.40;96.30
8002;DHT22;4046;48.774;8.732;2023-07-22T15:38:52;23.40;96.30
8002;DHT22;4046;48.774;8.732;2023-07-22T15:41:18;23.40;96.30
8002;DHT22;4046;48.774;8.732;2023-07-22T15:43:44;23.40;96.30
8002;DHT22;4046;48.774;8.732;2023-07-22T15:46:10;23.60;96.50
8002;DHT22;4046;48.774;8.732;2023-07-22T15:48:35;23.40;96.40
8002;DHT22;4046;48.774;8.732;2023-07-22T15:51:01;23.40;96.40
8002;DHT22;4046;48.774;8.732;2023-07-22T15:53:26;23.40;96.30
8002;DHT22;4046;48.774;8.732;2023-07-22T15:55:52;23.40;96.30
8002;DHT22;4046;48.774;8.732;2023-07-22T15:58:18;23.40;96.30
8002;DHT22;4046;48.774;8.732;2023-07-22T16:00:45;23.40;96.30
8002;DHT22;4046;48.774;8.732;2023-07-22T16:03:11;23.40;96.30
8002;DHT22;4046;48.774;8.732;2023-07-22T16:05:37;23.50;96.40
8002;DHT22;4046;48.774;8.732;2023-07-22T16:08:03;23.40;96.40